DBBB/COO METAR and TAF weather

Enter ICAO airport designator
Station Type Date Time Source
DBBB METAR 2019/06/26 14:23 UTC NOAA

DBBB 261423Z 25010KT 8000 SCT012 FEW020CB 26/24 Q1013 NOSIG


Station Type Date Time Source
DBBB Decoded METAR 2019/06/26 14:23 UTC NOAA

Cotonou, Benin (DBBB) 06-21N 002-23E 9M
Jun 26, 2019 - 10:23 AM EDT / 2019.06.26 1423 UTC
Wind: from the WSW (250 degrees) at 12 MPH (10 KT):0
Visibility: 4 mile(s):0
Sky conditions: partly cloudy
Weather: Cumulonimbus clouds observed
Temperature: 78 F (26 C)
Dew Point: 75 F (24 C)
Relative Humidity: 88%
Pressure (altimeter): 29.91 in. Hg (1013 hPa)
ob: DBBB 261423Z 25010KT 8000 SCT012 FEW020CB 26/24 Q1013 NOSIG
cycle: 14

Station Type Date Time Source
DBBB TAF 2019/06/25 12:27 UTC NOAA

TAF TAF DBBB 251100Z 2512/2618 22010KT 8000 SCT012
TEMPO 2512/2518 3000 SHRA BKN010 FEW023CB

Example: see airport list